Time;durP1;ratioP1;P1;durP2;ratioP2;P2;SDS_P1;SDS_P2;PMS_P1;PMS_P2;Temp;Humidity;BMP_temperature;BMP_pressure;BME280_temperature;BME280_humidity;BME280_pressure;Samples;Min_cycle;Max_cycle;Signal;HPM_P1;HPM_P2
2022/06/15 00:02:04;;;;;;;4.50;1.65;;;;;;;;;;10386489;28;20059;-53
2022/06/15 00:07:06;;;;;;;2.17;1.40;;;;;;;;;;10402228;28;20060;-50
2022/06/15 00:12:08;;;;;;;5.70;1.85;;;;;;;;;;10379473;28;20033;-54
2022/06/15 00:17:09;;;;;;;6.25;1.83;;;;;;;;;;10386068;28;20034;-55
2022/06/15 00:22:11;;;;;;;2.45;1.38;;;;;;;;;;10413316;28;20052;-51
2022/06/15 00:27:12;;;;;;;5.38;1.65;;;;;;;;;;10390444;28;20038;-55
2022/06/15 00:32:12;;;;;;;3.08;1.50;;;;;;;;;;10385753;28;20107;-53
2022/06/15 00:37:13;;;;;;;2.03;1.48;;;;;;;;;;10389499;28;20033;-53
2022/06/15 00:42:15;;;;;;;1.85;1.27;;;;;;;;;;10412507;28;20102;-54
2022/06/15 00:47:28;;;;;;;3.15;1.50;;;;;;;;;;10372561;28;20030;-53
2022/06/15 00:52:47;;;;;;;2.45;1.40;;;;;;;;;;10390532;28;20026;-52
2022/06/15 00:57:48;;;;;;;3.22;1.67;;;;;;;;;;10388801;28;20037;-55
2022/06/15 01:02:48;;;;;;;2.75;1.90;;;;;;;;;;10381729;28;20033;-54
2022/06/15 01:08:39;;;;;;;2.70;1.50;;;;;;;;;;10394662;28;20029;-53
2022/06/15 01:14:17;;;;;;;4.40;1.50;;;;;;;;;;10396207;28;20046;-55
2022/06/15 01:19:33;;;;;;;3.97;1.48;;;;;;;;;;10396884;28;20042;-57
2022/06/15 01:24:54;;;;;;;1.52;1.30;;;;;;;;;;10395347;28;21009;-54
2022/06/15 01:30:24;;;;;;;4.22;1.40;;;;;;;;;;10393696;28;20064;-53
2022/06/15 01:35:30;;;;;;;1.35;1.25;;;;;;;;;;10378109;28;20026;-55
2022/06/15 01:40:40;;;;;;;2.05;1.48;;;;;;;;;;10371816;28;20112;-53
2022/06/15 01:45:42;;;;;;;1.70;1.30;;;;;;;;;;10369552;28;20058;-57
2022/06/15 01:50:49;;;;;;;6.15;1.52;;;;;;;;;;10381140;28;20112;-56
2022/06/15 01:56:06;;;;;;;4.75;1.60;;;;;;;;;;10375723;28;20618;-51
2022/06/15 02:01:15;;;;;;;5.00;1.63;;;;;;;;;;10374144;28;20052;-50
2022/06/15 02:06:26;;;;;;;4.68;1.75;;;;;;;;;;10399354;28;20022;-51
2022/06/15 02:11:36;;;;;;;3.25;1.52;;;;;;;;;;10382445;28;20478;-55
2022/06/15 02:16:43;;;;;;;2.78;1.80;;;;;;;;;;10385889;28;20159;-53
2022/06/15 02:21:50;;;;;;;2.35;1.40;;;;;;;;;;10374374;28;20049;-54
2022/06/15 02:26:50;;;;;;;2.72;1.33;;;;;;;;;;10379514;28;20034;-55
2022/06/15 02:31:56;;;;;;;2.15;1.35;;;;;;;;;;10378952;28;20095;-53
2022/06/15 02:36:56;;;;;;;2.80;1.42;;;;;;;;;;10379630;28;20033;-50
2022/06/15 02:42:21;;;;;;;1.88;1.40;;;;;;;;;;10391376;28;20033;-54
2022/06/15 02:47:26;;;;;;;2.55;1.58;;;;;;;;;;10395565;28;20022;-57
2022/06/15 02:52:37;;;;;;;2.88;1.63;;;;;;;;;;10392148;28;20108;-56
2022/06/15 02:57:48;;;;;;;2.25;1.48;;;;;;;;;;10365622;28;20026;-53
2022/06/15 03:02:49;;;;;;;4.18;1.40;;;;;;;;;;10405073;28;20030;-57
2022/06/15 03:07:50;;;;;;;1.45;1.33;;;;;;;;;;10380347;28;20113;-56
2022/06/15 03:12:50;;;;;;;4.32;1.48;;;;;;;;;;10382301;28;20030;-57
2022/06/15 03:17:52;;;;;;;1.88;1.27;;;;;;;;;;10386957;28;20021;-56
2022/06/15 03:22:53;;;;;;;1.50;1.30;;;;;;;;;;10395787;28;20075;-57
2022/06/15 03:27:54;;;;;;;2.30;1.40;;;;;;;;;;10375720;28;20314;-55
2022/06/15 03:32:54;;;;;;;1.65;1.17;;;;;;;;;;10391742;28;20045;-56
2022/06/15 03:37:55;;;;;;;1.65;1.30;;;;;;;;;;10388263;28;20033;-57
2022/06/15 03:42:55;;;;;;;2.40;1.30;;;;;;;;;;10400087;28;20025;-56
2022/06/15 03:47:56;;;;;;;1.95;1.30;;;;;;;;;;10398449;28;20052;-56
2022/06/15 03:52:58;;;;;;;1.95;1.35;;;;;;;;;;10374290;28;20174;-58
2022/06/15 03:57:58;;;;;;;3.63;1.40;;;;;;;;;;10374844;28;20127;-57
2022/06/15 04:02:59;;;;;;;1.85;1.23;;;;;;;;;;10371133;28;20045;-57
2022/06/15 04:13:21;;;;;;;1.38;1.05;;;;;;;;;;10387241;28;20030;-57
2022/06/15 04:18:21;;;;;;;1.25;1.08;;;;;;;;;;10398702;28;20080;-56
2022/06/15 04:23:22;;;;;;;3.10;1.58;;;;;;;;;;10394674;28;20036;-56
2022/06/15 04:28:24;;;;;;;1.98;1.30;;;;;;;;;;10396659;28;20033;-55
2022/06/15 04:33:28;;;;;;;1.95;1.27;;;;;;;;;;10410827;28;20405;-57
2022/06/15 04:38:29;;;;;;;3.90;1.20;;;;;;;;;;10384381;28;20477;-55
2022/06/15 04:43:29;;;;;;;4.93;1.70;;;;;;;;;;10371312;28;20030;-53
2022/06/15 04:48:30;;;;;;;5.45;1.10;;;;;;;;;;10390554;28;20114;-52
2022/06/15 04:53:31;;;;;;;2.25;1.15;;;;;;;;;;10380860;28;20033;-54
2022/06/15 04:58:31;;;;;;;5.22;1.20;;;;;;;;;;10383230;28;20389;-54
2022/06/15 05:03:33;;;;;;;3.55;1.20;;;;;;;;;;10388819;28;20107;-59
2022/06/15 05:08:34;;;;;;;7.15;1.40;;;;;;;;;;10382730;28;20450;-59
2022/06/15 05:13:34;;;;;;;2.67;1.33;;;;;;;;;;10385696;28;20041;-54
2022/06/15 05:18:35;;;;;;;4.30;1.40;;;;;;;;;;10403533;28;20408;-54
2022/06/15 05:23:36;;;;;;;11.85;2.90;;;;;;;;;;10382313;28;20578;-57
2022/06/15 05:28:38;;;;;;;4.97;2.58;;;;;;;;;;10371883;28;20026;-57
2022/06/15 05:33:40;;;;;;;19.35;4.75;;;;;;;;;;10386131;28;20050;-54
2022/06/15 05:38:41;;;;;;;7.97;4.80;;;;;;;;;;10416177;28;20497;-53
2022/06/15 05:43:52;;;;;;;13.63;4.55;;;;;;;;;;10387526;28;20470;-54
2022/06/15 05:48:54;;;;;;;14.80;3.83;;;;;;;;;;10397027;28;20030;-50
2022/06/15 05:53:55;;;;;;;24.40;3.55;;;;;;;;;;10375233;28;20045;-54
2022/06/15 05:58:55;;;;;;;9.98;3.10;;;;;;;;;;10383868;28;20022;-59
2022/06/15 06:03:56;;;;;;;12.35;3.03;;;;;;;;;;10386910;28;20539;-52
2022/06/15 06:08:58;;;;;;;14.18;3.03;;;;;;;;;;10381366;28;20089;-53
2022/06/15 06:13:59;;;;;;;8.07;3.17;;;;;;;;;;10393162;28;20064;-52
2022/06/15 06:18:59;;;;;;;9.02;3.08;;;;;;;;;;10387393;28;20037;-51
2022/06/15 06:24:00;;;;;;;8.50;3.17;;;;;;;;;;10388362;28;20079;-57
2022/06/15 06:29:01;;;;;;;9.23;3.15;;;;;;;;;;10398465;28;20033;-55
2022/06/15 06:34:01;;;;;;;15.23;3.00;;;;;;;;;;10396508;28;20205;-53
2022/06/15 06:39:12;;;;;;;8.10;2.85;;;;;;;;;;10389701;28;20025;-51
2022/06/15 06:44:13;;;;;;;6.63;2.80;;;;;;;;;;10374208;28;20105;-53
2022/06/15 06:49:15;;;;;;;9.18;2.88;;;;;;;;;;10402616;28;20080;-54
2022/06/15 06:54:18;;;;;;;8.65;3.35;;;;;;;;;;10387925;28;20414;-50
2022/06/15 06:59:19;;;;;;;7.97;2.95;;;;;;;;;;10393312;28;20029;-51
2022/06/15 07:04:20;;;;;;;11.35;3.05;;;;;;;;;;10392370;28;20026;-51
2022/06/15 07:09:20;;;;;;;17.65;3.20;;;;;;;;;;10390655;28;20026;-52
2022/06/15 07:14:21;;;;;;;9.52;3.63;;;;;;;;;;10391172;28;20037;-52
2022/06/15 07:19:22;;;;;;;7.55;3.25;;;;;;;;;;10398899;28;20040;-51
2022/06/15 07:24:23;;;;;;;7.75;2.85;;;;;;;;;;10386718;28;20034;-54
2022/06/15 07:29:23;;;;;;;7.03;3.15;;;;;;;;;;10382276;28;20025;-54
2022/06/15 07:34:25;;;;;;;8.00;3.47;;;;;;;;;;10384980;28;20065;-50
2022/06/15 07:39:29;;;;;;;14.13;3.30;;;;;;;;;;10379343;28;20026;-59
2022/06/15 07:44:30;;;;;;;8.52;3.38;;;;;;;;;;10369338;28;20433;-52
2022/06/15 07:50:03;;;;;;;8.93;3.40;;;;;;;;;;10368168;28;20096;-53
2022/06/15 07:54:57;;;;;;;11.55;3.60;;;;;;;;;;10370031;28;20065;-54
2022/06/15 07:59:58;;;;;;;7.03;3.50;;;;;;;;;;10382298;28;20084;-50
2022/06/15 08:04:59;;;;;;;6.63;3.08;;;;;;;;;;10372902;28;20442;-50
2022/06/15 08:09:59;;;;;;;7.05;3.35;;;;;;;;;;10389971;28;20033;-54
2022/06/15 08:15:03;;;;;;;7.55;3.75;;;;;;;;;;10387675;28;20030;-50
2022/06/15 08:20:38;;;;;;;5.22;3.28;;;;;;;;;;10383886;28;20037;-53
2022/06/15 08:25:45;;;;;;;8.15;3.30;;;;;;;;;;10398973;28;20477;-50
2022/06/15 08:30:47;;;;;;;19.55;3.58;;;;;;;;;;10386079;28;20038;-53
2022/06/15 08:35:49;;;;;;;11.27;3.58;;;;;;;;;;10409661;28;20030;-55
2022/06/15 08:40:59;;;;;;;10.95;3.80;;;;;;;;;;10402258;28;20129;-49
2022/06/15 08:46:40;;;;;;;6.18;3.97;;;;;;;;;;10393823;28;20481;-52
2022/06/15 08:51:46;;;;;;;7.13;3.53;;;;;;;;;;10398957;28;20032;-54
2022/06/15 08:57:49;;;;;;;6.75;3.13;;;;;;;;;;10412551;28;20032;-49
2022/06/15 09:03:31;;;;;;;4.95;3.10;;;;;;;;;;10389954;28;20117;-50
2022/06/15 09:09:05;;;;;;;7.43;3.30;;;;;;;;;;10427264;28;20505;-50
2022/06/15 09:14:45;;;;;;;5.38;3.33;;;;;;;;;;10411131;28;20033;-54
2022/06/15 09:19:59;;;;;;;8.10;3.22;;;;;;;;;;10394419;28;20025;-49
2022/06/15 09:25:16;;;;;;;5.70;3.33;;;;;;;;;;10398627;28;20456;-51
2022/06/15 09:30:31;;;;;;;4.80;3.07;;;;;;;;;;10401646;28;20505;-53
2022/06/15 09:35:42;;;;;;;7.00;3.20;;;;;;;;;;10396822;28;20083;-49
2022/06/15 09:40:46;;;;;;;5.63;3.17;;;;;;;;;;10376410;28;20018;-50
2022/06/15 09:46:10;;;;;;;7.53;3.03;;;;;;;;;;10391183;28;20380;-51
2022/06/15 09:52:09;;;;;;;5.38;2.95;;;;;;;;;;10401311;28;20038;-52
2022/06/15 09:57:11;;;;;;;3.90;2.90;;;;;;;;;;10394363;28;20604;-52
2022/06/15 10:02:36;;;;;;;7.25;2.70;;;;;;;;;;10372509;28;20140;-58
2022/06/15 10:07:43;;;;;;;5.97;2.63;;;;;;;;;;10402482;28;20436;-58
2022/06/15 10:12:57;;;;;;;2.88;2.63;;;;;;;;;;10385761;28;20088;-57
2022/06/15 10:18:16;;;;;;;3.88;2.67;;;;;;;;;;10401811;28;20183;-60
2022/06/15 10:23:55;;;;;;;16.65;3.00;;;;;;;;;;10399530;28;20519;-60
2022/06/15 10:29:03;;;;;;;9.60;2.85;;;;;;;;;;10401823;28;20136;-60
2022/06/15 10:34:27;;;;;;;5.78;2.85;;;;;;;;;;10408223;28;20057;-60
2022/06/15 10:39:33;;;;;;;6.95;2.65;;;;;;;;;;10389659;28;20034;-57
2022/06/15 10:44:51;;;;;;;4.68;2.70;;;;;;;;;;10397590;28;20029;-60
2022/06/15 10:50:00;;;;;;;6.68;2.78;;;;;;;;;;10400893;28;20022;-60
2022/06/15 11:06:24;;;;;;;6.40;2.55;;;;;;;;;;10402189;28;20545;-61
2022/06/15 11:11:26;;;;;;;3.45;2.60;;;;;;;;;;10389401;28;20042;-60
2022/06/15 11:22:08;;;;;;;3.05;2.45;;;;;;;;;;10403692;28;20029;-59
2022/06/15 11:27:19;;;;;;;5.78;2.40;;;;;;;;;;10385819;28;20026;-59
2022/06/15 11:33:25;;;;;;;4.60;2.58;;;;;;;;;;10397863;28;20046;-53
2022/06/15 11:38:40;;;;;;;31.17;4.60;;;;;;;;;;10405126;28;20393;-49
2022/06/15 11:43:44;;;;;;;19.27;3.00;;;;;;;;;;10385303;28;20279;-51
2022/06/15 11:49:26;;;;;;;12.57;2.83;;;;;;;;;;10420810;28;20029;-53
2022/06/15 11:55:20;;;;;;;4.07;2.00;;;;;;;;;;10398583;28;20025;-50
2022/06/15 12:00:30;;;;;;;6.15;2.50;;;;;;;;;;10404897;28;20033;-52
2022/06/15 12:05:46;;;;;;;6.97;2.50;;;;;;;;;;10407154;28;20017;-52
2022/06/15 12:10:52;;;;;;;5.82;3.03;;;;;;;;;;10404232;28;20044;-50
2022/06/15 12:16:01;;;;;;;4.45;2.53;;;;;;;;;;10409468;28;20163;-51
2022/06/15 12:21:20;;;;;;;3.67;2.15;;;;;;;;;;10412800;28;20025;-53
2022/06/15 12:27:06;;;;;;;4.00;2.53;;;;;;;;;;10404978;28;20683;-54
2022/06/15 12:37:43;;;;;;;4.95;2.28;;;;;;;;;;10402363;28;20531;-54
2022/06/15 12:42:50;;;;;;;4.50;3.00;;;;;;;;;;10392204;28;20022;-55
2022/06/15 12:47:58;;;;;;;3.55;2.78;;;;;;;;;;10380691;28;20366;-56
2022/06/15 12:53:24;;;;;;;5.30;2.40;;;;;;;;;;10388892;28;20102;-53
2022/06/15 12:58:49;;;;;;;5.25;2.55;;;;;;;;;;10388538;28;20026;-52
2022/06/15 13:04:19;;;;;;;3.67;2.67;;;;;;;;;;10396906;28;20038;-51
2022/06/15 13:09:22;;;;;;;4.88;2.85;;;;;;;;;;10399978;28;20491;-51
2022/06/15 13:14:27;;;;;;;5.05;2.50;;;;;;;;;;10397042;28;20128;-54
2022/06/15 13:19:56;;;;;;;6.57;2.70;;;;;;;;;;10402482;28;20115;-50
2022/06/15 13:25:04;;;;;;;6.75;2.55;;;;;;;;;;10380750;28;20429;-53
2022/06/15 13:30:28;;;;;;;6.30;2.63;;;;;;;;;;10389717;28;20041;-51
2022/06/15 13:35:32;;;;;;;5.68;3.28;;;;;;;;;;10404333;28;20492;-54
2022/06/15 13:41:00;;;;;;;10.20;2.75;;;;;;;;;;10395975;28;20021;-50
2022/06/15 13:46:26;;;;;;;5.47;2.90;;;;;;;;;;10399033;28;20048;-53
2022/06/15 13:51:50;;;;;;;6.78;3.50;;;;;;;;;;10401119;28;20418;-53
2022/06/15 13:57:36;;;;;;;6.50;3.03;;;;;;;;;;10387508;28;20026;-50
2022/06/15 14:03:07;;;;;;;5.90;2.90;;;;;;;;;;10373588;28;20034;-53
2022/06/15 14:08:19;;;;;;;3.92;2.60;;;;;;;;;;10398238;28;20061;-58
2022/06/15 14:14:02;;;;;;;6.30;2.88;;;;;;;;;;10405304;28;20025;-55
2022/06/15 14:19:07;;;;;;;5.18;2.70;;;;;;;;;;10371606;28;20415;-53
2022/06/15 14:24:25;;;;;;;5.10;2.78;;;;;;;;;;10375234;28;20500;-55
2022/06/15 14:29:36;;;;;;;5.00;2.83;;;;;;;;;;10386640;28;20030;-51
2022/06/15 14:34:37;;;;;;;4.65;2.75;;;;;;;;;;10366737;28;20061;-51
2022/06/15 14:39:54;;;;;;;5.97;2.80;;;;;;;;;;10377135;28;20472;-52
2022/06/15 14:45:15;;;;;;;4.05;2.70;;;;;;;;;;10384757;28;20045;-50
2022/06/15 14:50:15;;;;;;;4.22;2.55;;;;;;;;;;10373060;28;20040;-53
2022/06/15 14:55:25;;;;;;;4.53;2.67;;;;;;;;;;10390902;28;20030;-52
2022/06/15 15:00:34;;;;;;;3.83;2.42;;;;;;;;;;10389464;28;20022;-53
2022/06/15 15:05:40;;;;;;;5.32;2.80;;;;;;;;;;10383392;28;20541;-52
2022/06/15 15:10:44;;;;;;;6.85;2.80;;;;;;;;;;10395622;28;20428;-50
2022/06/15 15:16:07;;;;;;;10.98;3.20;;;;;;;;;;10386601;28;20435;-56
2022/06/15 15:21:42;;;;;;;4.28;2.55;;;;;;;;;;10377462;28;20036;-57
2022/06/15 15:27:11;;;;;;;5.30;2.60;;;;;;;;;;10391331;28;20049;-55
2022/06/15 15:37:53;;;;;;;9.77;2.40;;;;;;;;;;10376532;28;20509;-55
2022/06/15 15:42:54;;;;;;;12.15;2.90;;;;;;;;;;10393691;28;20100;-54
2022/06/15 15:47:55;;;;;;;4.38;2.10;;;;;;;;;;10380709;28;20030;-55
2022/06/15 15:52:55;;;;;;;6.47;2.72;;;;;;;;;;10387604;28;20036;-55
2022/06/15 15:57:57;;;;;;;5.90;2.55;;;;;;;;;;10385720;28;20044;-56
2022/06/15 16:03:04;;;;;;;7.65;2.63;;;;;;;;;;10391885;28;20022;-54
2022/06/15 16:08:09;;;;;;;4.90;2.47;;;;;;;;;;10395814;28;20029;-55
2022/06/15 16:13:11;;;;;;;3.40;2.20;;;;;;;;;;10383409;28;20099;-54
2022/06/15 16:18:15;;;;;;;3.13;2.20;;;;;;;;;;10376702;28;20095;-52
2022/06/15 16:23:21;;;;;;;6.55;2.65;;;;;;;;;;10396601;28;20386;-58
2022/06/15 16:28:21;;;;;;;8.23;2.47;;;;;;;;;;10390961;28;20034;-56
2022/06/15 16:33:22;;;;;;;3.20;2.20;;;;;;;;;;10415000;28;20053;-56
2022/06/15 16:38:23;;;;;;;6.32;1.88;;;;;;;;;;10376858;28;20037;-56
2022/06/15 16:43:23;;;;;;;9.00;2.17;;;;;;;;;;10410633;28;20033;-57
2022/06/15 16:48:24;;;;;;;5.97;1.95;;;;;;;;;;10372604;28;20080;-58
2022/06/15 16:53:24;;;;;;;12.07;7.78;;;;;;;;;;10394371;28;20038;-57
2022/06/15 16:58:26;;;;;;;28.25;14.95;;;;;;;;;;10402500;28;20040;-58
2022/06/15 17:03:27;;;;;;;14.88;6.25;;;;;;;;;;10398473;28;20033;-56
2022/06/15 17:08:41;;;;;;;14.15;4.50;;;;;;;;;;10388043;28;20042;-57
2022/06/15 17:13:43;;;;;;;26.23;7.03;;;;;;;;;;10408106;28;20061;-56
2022/06/15 17:18:44;;;;;;;23.60;8.32;;;;;;;;;;10383724;28;20072;-58
2022/06/15 17:23:52;;;;;;;16.92;5.18;;;;;;;;;;10381664;28;20081;-58
2022/06/15 17:28:54;;;;;;;;;;;;;;;;;;10381850;28;20069;-58
2022/06/15 17:33:55;;;;;;;8.55;3.40;;;;;;;;;;10389327;28;19916;-58
2022/06/15 17:38:56;;;;;;;5.93;2.80;;;;;;;;;;10384397;28;20037;-58
2022/06/15 17:43:59;;;;;;;6.45;2.50;;;;;;;;;;10370048;28;20034;-59
2022/06/15 17:48:59;;;;;;;10.18;2.47;;;;;;;;;;10387806;28;20033;-58
2022/06/15 17:54:00;;;;;;;12.15;3.13;;;;;;;;;;10428151;28;20030;-59
2022/06/15 17:59:07;;;;;;;18.13;6.53;;;;;;;;;;10390924;28;20033;-58
2022/06/15 18:04:08;;;;;;;16.07;5.17;;;;;;;;;;10388329;28;20073;-58
2022/06/15 18:09:09;;;;;;;6.35;3.50;;;;;;;;;;10393530;28;20033;-59
2022/06/15 18:14:20;;;;;;;7.05;2.80;;;;;;;;;;10381574;28;20033;-62
2022/06/15 18:19:26;;;;;;;8.75;2.72;;;;;;;;;;10389901;28;20256;-60
2022/06/15 18:24:30;;;;;;;5.28;2.67;;;;;;;;;;10398951;28;20053;-55
2022/06/15 18:29:30;;;;;;;6.18;2.30;;;;;;;;;;10396695;28;20046;-56
2022/06/15 18:34:33;;;;;;;8.55;2.92;;;;;;;;;;10381913;28;20042;-60
2022/06/15 18:39:38;;;;;;;6.13;2.80;;;;;;;;;;10387186;28;20049;-60
2022/06/15 18:49:58;;;;;;;8.52;2.50;;;;;;;;;;10390320;28;20029;-60
2022/06/15 18:55:01;;;;;;;6.50;2.45;;;;;;;;;;10386205;28;20041;-60
2022/06/15 19:00:07;;;;;;;11.55;4.13;;;;;;;;;;10396707;28;20036;-60
2022/06/15 19:05:09;;;;;;;23.58;10.73;;;;;;;;;;10384323;28;20026;-60
2022/06/15 19:10:12;;;;;;;28.27;12.30;;;;;;;;;;10388732;28;20017;-60
2022/06/15 19:15:12;;;;;;;23.95;9.88;;;;;;;;;;10395480;28;20048;-58
2022/06/15 19:20:14;;;;;;;21.17;7.68;;;;;;;;;;10378200;28;20029;-59
2022/06/15 19:25:15;;;;;;;27.40;7.50;;;;;;;;;;10386252;28;20044;-58
2022/06/15 19:30:17;;;;;;;16.15;5.20;;;;;;;;;;10368975;28;20046;-58
2022/06/15 19:35:22;;;;;;;11.90;4.72;;;;;;;;;;10387371;28;20029;-58
2022/06/15 19:40:29;;;;;;;11.18;4.13;;;;;;;;;;10376600;28;20348;-58
2022/06/15 19:45:30;;;;;;;7.57;3.55;;;;;;;;;;10389837;28;20159;-58
2022/06/15 19:50:30;;;;;;;11.77;3.35;;;;;;;;;;10378333;28;20100;-58
2022/06/15 19:55:33;;;;;;;8.77;3.63;;;;;;;;;;10384469;28;20506;-56
2022/06/15 20:00:35;;;;;;;5.10;3.00;;;;;;;;;;10385083;28;20022;-58
2022/06/15 20:05:36;;;;;;;7.78;2.70;;;;;;;;;;10381672;28;20056;-56
2022/06/15 20:10:37;;;;;;;11.02;3.72;;;;;;;;;;10383022;28;20116;-56
2022/06/15 20:15:39;;;;;;;8.98;3.67;;;;;;;;;;10382075;28;20045;-56
2022/06/15 20:20:46;;;;;;;16.17;3.58;;;;;;;;;;10386671;28;20029;-57
2022/06/15 20:25:52;;;;;;;4.60;3.17;;;;;;;;;;10384051;28;20392;-57
2022/06/15 20:30:53;;;;;;;8.52;3.38;;;;;;;;;;10388171;28;20041;-57
2022/06/15 20:35:55;;;;;;;6.38;3.25;;;;;;;;;;10394688;28;20078;-57
2022/06/15 20:40:58;;;;;;;13.30;3.45;;;;;;;;;;10391502;28;20247;-58
2022/06/15 20:46:03;;;;;;;11.50;3.35;;;;;;;;;;10388217;28;20033;-57
2022/06/15 20:51:03;;;;;;;6.38;3.63;;;;;;;;;;10384118;28;20092;-55
2022/06/15 21:01:27;;;;;;;11.82;3.30;;;;;;;;;;10378287;28;20037;-57
2022/06/15 21:06:31;;;;;;;12.07;4.72;;;;;;;;;;10373778;28;20048;-59
2022/06/15 21:22:11;;;;;;;10.88;4.43;;;;;;;;;;10396169;28;21773;-58
2022/06/15 21:27:12;;;;;;;12.27;4.13;;;;;;;;;;10392906;28;20033;-58
2022/06/15 21:32:15;;;;;;;11.63;3.50;;;;;;;;;;10387475;28;20034;-49
2022/06/15 21:37:16;;;;;;;15.40;3.60;;;;;;;;;;10390179;28;20505;-53
2022/06/15 21:42:18;;;;;;;5.70;3.10;;;;;;;;;;10397386;28;20033;-49
2022/06/15 21:47:28;;;;;;;17.77;3.40;;;;;;;;;;10398754;28;20508;-49
2022/06/15 21:52:30;;;;;;;11.38;3.47;;;;;;;;;;10391416;28;20035;-52
2022/06/15 21:57:31;;;;;;;9.07;2.83;;;;;;;;;;10395619;28;20026;-49
2022/06/15 22:02:34;;;;;;;11.15;3.15;;;;;;;;;;10388531;28;20376;-51
2022/06/15 22:07:34;;;;;;;8.02;3.28;;;;;;;;;;10381013;28;20045;-50
2022/06/15 22:12:36;;;;;;;9.85;2.67;;;;;;;;;;10381785;28;20491;-56
2022/06/15 22:17:37;;;;;;;15.77;2.72;;;;;;;;;;10391542;28;20072;-49
2022/06/15 22:22:38;;;;;;;8.93;2.20;;;;;;;;;;10386411;28;21503;-49
2022/06/15 22:27:39;;;;;;;8.07;2.85;;;;;;;;;;10373416;28;20159;-49
2022/06/15 22:32:39;;;;;;;6.70;2.88;;;;;;;;;;10381064;28;20565;-50
2022/06/15 22:37:40;;;;;;;4.57;2.22;;;;;;;;;;10395832;28;20424;-49
2022/06/15 22:42:44;;;;;;;6.07;2.63;;;;;;;;;;10384549;28;20029;-51
2022/06/15 22:47:44;;;;;;;6.22;2.30;;;;;;;;;;10404603;28;20033;-48
2022/06/15 22:52:45;;;;;;;5.93;2.78;;;;;;;;;;10393832;28;20489;-56
2022/06/15 22:57:46;;;;;;;3.85;2.50;;;;;;;;;;10380569;28;20501;-49
2022/06/15 23:02:48;;;;;;;3.80;2.08;;;;;;;;;;10395424;28;20039;-50
2022/06/15 23:07:49;;;;;;;5.85;2.20;;;;;;;;;;10374735;28;20505;-49
2022/06/15 23:12:51;;;;;;;9.25;2.45;;;;;;;;;;10372600;28;20485;-49
2022/06/15 23:17:51;;;;;;;9.13;2.20;;;;;;;;;;10402972;28;20087;-50
2022/06/15 23:22:52;;;;;;;4.63;2.42;;;;;;;;;;10384031;28;20084;-50
2022/06/15 23:27:52;;;;;;;3.10;1.95;;;;;;;;;;10390263;28;20029;-50
2022/06/15 23:32:53;;;;;;;4.15;2.38;;;;;;;;;;10411721;28;20095;-50
2022/06/15 23:37:54;;;;;;;3.97;2.15;;;;;;;;;;10381918;28;20033;-50
2022/06/15 23:42:56;;;;;;;6.07;2.38;;;;;;;;;;10400641;28;20021;-49
2022/06/15 23:48:02;;;;;;;3.75;2.13;;;;;;;;;;10394264;28;20033;-49
2022/06/15 23:53:03;;;;;;;4.63;2.08;;;;;;;;;;10397897;28;20041;-56
2022/06/15 23:58:05;;;;;;;4.53;2.20;;;;;;;;;;10401167;28;20388;-52
